Time;durP1;ratioP1;P1;durP2;ratioP2;P2;SDS_P1;SDS_P2;PMS_P1;PMS_P2;Temp;Humidity;BMP_temperature;BMP_pressure;BME280_temperature;BME280_humidity;BME280_pressure;Samples;Min_cycle;Max_cycle;Signal;HPM_P1;HPM_P2
2022/11/03 00:02:12;;;;;;;6.72;3.13;;;;;;;16.12;48.47;95364.47;5031683;28;20183;-78
2022/11/03 00:04:37;;;;;;;9.75;3.80;;;;;;;16.18;48.90;95381.31;5037337;28;20175;-79
2022/11/03 00:07:03;;;;;;;7.47;3.83;;;;;;;16.08;49.51;95370.47;5039911;28;20233;-78
2022/11/03 00:09:30;;;;;;;10.52;3.30;;;;;;;16.05;50.15;95370.94;5040170;28;20552;-78
2022/11/03 00:11:55;;;;;;;7.03;3.17;;;;;;;16.08;50.27;95370.47;5044217;28;20223;-79
2022/11/03 00:14:21;;;;;;;8.02;2.70;;;;;;;16.18;50.88;95383.97;5043523;28;20171;-78
2022/11/03 00:16:46;;;;;;;8.77;3.10;;;;;;;16.13;51.00;95378.56;5032365;28;20216;-78
2022/11/03 00:19:14;;;;;;;8.88;3.83;;;;;;;16.15;50.87;95373.81;5040824;28;20657;-78
2022/11/03 00:21:40;;;;;;;12.35;3.28;;;;;;;16.11;51.12;95364.69;5040250;28;20172;-79
2022/11/03 00:24:06;;;;;;;8.48;3.67;;;;;;;16.28;50.83;95388.69;5036448;28;20189;-79
2022/11/03 00:26:33;;;;;;;8.13;3.40;;;;;;;16.33;50.71;95389.63;5049296;28;20175;-79
2022/11/03 00:29:04;;;;;;;9.95;3.53;;;;;;;16.39;50.67;95393.19;5039582;28;20720;-79
2022/11/03 00:31:32;;;;;;;12.75;4.25;;;;;;;16.37;50.73;95387.28;5040829;28;20202;-79
2022/11/03 00:33:59;;;;;;;10.07;4.10;;;;;;;16.33;50.91;95383.50;5032523;28;20233;-79
2022/11/03 00:36:42;;;;;;;6.38;3.65;;;;;;;16.39;51.13;95398.50;5040756;28;20263;-79
2022/11/03 00:39:08;;;;;;;9.05;3.63;;;;;;;16.32;50.87;95388.00;5033217;28;20198;-79
2022/11/03 00:41:34;;;;;;;7.43;3.45;;;;;;;16.26;50.93;95369.53;5055825;28;20172;-79
2022/11/03 00:43:59;;;;;;;6.72;3.35;;;;;;;16.23;51.08;95371.63;5043538;28;20618;-79
2022/11/03 00:46:25;;;;;;;7.22;3.60;;;;;;;16.38;51.20;95389.72;5043666;28;20167;-79
2022/11/03 00:48:51;;;;;;;7.13;3.60;;;;;;;16.42;51.26;95398.06;5042849;28;20182;-79
2022/11/03 00:51:20;;;;;;;5.68;3.47;;;;;;;16.40;51.45;95395.63;5039068;28;20195;-79
2022/11/03 00:53:47;;;;;;;7.90;3.65;;;;;;;16.41;51.00;95399.09;5040646;28;20541;-79
2022/11/03 00:56:16;;;;;;;9.80;3.95;;;;;;;16.25;51.37;95389.19;5043209;28;20186;-79
2022/11/03 00:58:42;;;;;;;9.02;3.78;;;;;;;16.26;51.50;95396.13;5043459;28;20171;-79
2022/11/03 01:01:13;;;;;;;7.13;3.67;;;;;;;16.03;52.13;95379.13;5033503;28;20217;-78
2022/11/03 01:03:40;;;;;;;7.55;3.97;;;;;;;16.04;52.36;95380.75;5032322;28;20210;-78
2022/11/03 01:08:52;;;;;;;7.05;3.97;;;;;;;16.09;53.43;95395.97;5044097;28;20188;-78
2022/11/03 01:14:07;;;;;;;14.93;5.88;;;;;;;15.97;54.05;95379.25;5040675;28;20622;-79
2022/11/03 01:16:32;;;;;;;8.10;4.30;;;;;;;16.04;54.52;95394.03;5040520;28;20639;-78
2022/11/03 01:18:59;;;;;;;9.68;4.00;;;;;;;16.00;54.63;95397.38;5032565;28;20239;-78
2022/11/03 01:21:24;;;;;;;9.10;3.75;;;;;;;15.88;54.69;95385.94;5030926;28;20172;-78
2022/11/03 01:23:50;;;;;;;7.20;4.10;;;;;;;15.97;54.65;95388.03;5040651;28;20183;-78
2022/11/03 01:26:16;;;;;;;10.77;4.40;;;;;;;15.83;54.90;95378.66;5040842;28;20168;-78
2022/11/03 01:28:44;;;;;;;9.98;4.20;;;;;;;15.70;55.09;95357.66;5043255;28;20171;-78
2022/11/03 01:31:19;;;;;;;7.90;4.40;;;;;;;15.78;55.45;95363.44;5044048;28;20621;-79
2022/11/03 01:33:45;;;;;;;13.88;5.18;;;;;;;15.94;55.64;95391.13;5063411;28;20175;-78
2022/11/03 01:36:12;;;;;;;11.90;5.43;;;;;;;15.95;56.25;95390.09;5044335;28;20182;-78
2022/11/03 01:38:38;;;;;;;9.55;5.80;;;;;;;15.87;57.10;95390.44;5049870;28;20174;-79
2022/11/03 01:41:07;;;;;;;13.68;5.22;;;;;;;15.88;57.66;95392.06;5042976;28;20163;-79
2022/11/03 01:43:34;;;;;;;13.00;6.20;;;;;;;15.91;57.99;95390.81;5044882;28;20180;-79
2022/11/03 01:46:10;;;;;;;10.75;6.50;;;;;;;15.74;58.50;95364.13;5044266;28;20234;-79
2022/11/03 01:48:41;;;;;;;13.23;5.80;;;;;;;15.93;58.36;95394.81;5044774;28;20167;-79
2022/11/03 01:51:08;;;;;;;14.35;6.35;;;;;;;15.93;58.10;95399.31;5043810;28;20257;-79
2022/11/03 01:53:35;;;;;;;12.98;6.50;;;;;;;15.84;58.60;95377.63;5043781;28;20176;-78
2022/11/03 01:56:01;;;;;;;13.98;7.50;;;;;;;15.92;59.03;95401.19;5053115;28;20198;-79
2022/11/03 01:58:31;;;;;;;14.15;6.88;;;;;;;15.85;59.30;95392.50;5046897;28;20177;-79
2022/11/03 02:00:58;;;;;;;18.60;7.07;;;;;;;15.85;59.04;95384.56;5046850;28;20180;-79
2022/11/03 02:03:26;;;;;;;13.40;7.03;;;;;;;15.89;59.50;95403.50;5051014;28;20270;-79
2022/11/03 02:05:54;;;;;;;12.05;6.65;;;;;;;15.75;59.44;95387.78;5043697;28;20261;-79
2022/11/03 02:08:19;;;;;;;13.18;6.20;;;;;;;15.80;59.70;95413.66;5043555;28;20179;-79
2022/11/03 02:10:49;;;;;;;12.45;6.72;;;;;;;15.53;60.26;95389.34;5050721;28;20187;-79
2022/11/03 02:13:23;;;;;;;12.85;5.97;;;;;;;15.53;60.54;95399.94;5043982;28;20576;-79
2022/11/03 02:15:55;;;;;;;14.68;6.95;;;;;;;15.52;60.81;95408.94;5043389;28;20638;-79
2022/11/03 02:18:30;;;;;;;13.00;5.95;;;;;;;15.34;60.38;95370.03;5046412;28;20196;-79
2022/11/03 02:21:12;;;;;;;13.57;6.03;;;;;;;15.58;60.19;95396.63;5046548;28;20282;-79
2022/11/03 02:23:58;;;;;;;12.80;6.65;;;;;;;15.46;60.26;95384.13;5030800;28;20240;-79
2022/11/03 02:26:24;;;;;;;13.23;6.75;;;;;;;15.51;60.27;95398.56;5051874;28;20170;-79
2022/11/03 02:28:49;;;;;;;13.95;6.60;;;;;;;15.45;60.37;95403.75;5043001;28;20261;-79
2022/11/03 02:31:23;;;;;;;17.75;7.20;;;;;;;15.27;61.17;95389.75;5043924;28;20643;-78
2022/11/03 02:34:13;;;;;;;13.65;6.57;;;;;;;15.16;61.93;95404.56;5045046;28;20646;-79
2022/11/03 02:36:47;;;;;;;17.27;7.35;;;;;;;15.14;62.26;95406.63;5034754;28;20178;-79
2022/11/03 02:39:26;;;;;;;14.38;6.85;;;;;;;15.07;62.21;95384.69;5043116;28;20613;-79
2022/11/03 02:41:55;;;;;;;16.60;6.72;;;;;;;15.04;62.25;95378.03;5035976;28;20175;-79
2022/11/03 02:44:21;;;;;;;16.98;7.10;;;;;;;15.09;62.36;95398.56;5042487;28;20202;-79
2022/11/03 02:46:55;;;;;;;14.63;7.20;;;;;;;15.08;62.57;95396.94;5043072;28;20175;-79
2022/11/03 02:49:21;;;;;;;14.32;7.20;;;;;;;15.04;62.36;95395.78;5042847;28;20199;-79
2022/11/03 02:51:46;;;;;;;15.32;6.50;;;;;;;14.87;62.54;95371.75;5052533;28;20332;-79
2022/11/03 02:54:33;;;;;;;13.77;7.13;;;;;;;15.05;62.39;95403.50;5046306;28;20163;-79
2022/11/03 02:57:09;;;;;;;17.17;7.10;;;;;;;15.08;62.27;95396.94;5035075;28;20179;-79
2022/11/03 02:59:44;;;;;;;14.95;6.43;;;;;;;15.06;61.93;95399.81;5042806;28;20644;-79
2022/11/03 03:02:14;;;;;;;15.20;6.18;;;;;;;14.97;62.21;95397.69;5041445;28;20170;-79
2022/11/03 03:04:44;;;;;;;17.40;6.85;;;;;;;14.70;62.04;95391.94;5045957;28;20173;-79
2022/11/03 03:07:18;;;;;;;12.77;5.80;;;;;;;14.67;62.44;95392.38;5045981;28;20171;-79
2022/11/03 03:09:50;;;;;;;14.97;5.77;;;;;;;14.49;61.62;95360.59;5045499;28;20174;-79
2022/11/03 03:12:19;;;;;;;17.07;6.27;;;;;;;14.75;60.87;95407.97;5045452;28;20223;-79
2022/11/03 03:14:48;;;;;;;17.33;5.22;;;;;;;14.63;61.02;95386.69;5045101;28;20176;-79
2022/11/03 03:17:39;;;;;;;14.23;5.07;;;;;;;14.81;61.19;95406.25;5038026;28;20255;-79
2022/11/03 03:20:30;;;;;;;9.35;5.40;;;;;;;14.81;61.27;95395.66;5043961;28;20167;-79
2022/11/03 03:23:00;;;;;;;21.55;5.25;;;;;;;14.85;61.10;95413.56;5043275;28;20246;-79
2022/11/03 03:25:26;;;;;;;11.73;6.07;;;;;;;14.85;61.13;95408.25;5041587;28;20175;-79
2022/11/03 03:28:02;;;;;;;11.00;5.68;;;;;;;14.78;61.28;95406.72;5041937;28;20329;-79
2022/11/03 03:30:31;;;;;;;12.30;4.88;;;;;;;14.64;61.19;95395.47;5030936;28;20175;-79
2022/11/03 03:33:00;;;;;;;18.80;6.23;;;;;;;14.62;61.18;95397.50;5045524;28;20195;-79
2022/11/03 03:35:29;;;;;;;14.00;5.13;;;;;;;14.52;60.97;95363.63;5034001;28;20720;-79
2022/11/03 03:38:03;;;;;;;11.65;4.68;;;;;;;14.76;61.00;95395.53;5041954;28;20185;-79
2022/11/03 03:40:33;;;;;;;11.80;6.20;;;;;;;14.75;61.07;95396.56;5033834;28;20164;-79
2022/11/03 03:43:00;;;;;;;15.52;6.57;;;;;;;14.83;61.14;95404.22;5047955;28;20167;-79
2022/11/03 03:45:27;;;;;;;14.73;6.20;;;;;;;14.62;61.30;95390.38;5042272;28;20175;-79
2022/11/03 03:47:52;;;;;;;16.58;6.70;;;;;;;14.70;61.52;95408.63;5046586;28;20175;-79
2022/11/03 03:50:20;;;;;;;14.68;6.07;;;;;;;14.68;61.53;95410.72;5036690;28;20631;-79
2022/11/03 03:52:47;;;;;;;11.90;5.80;;;;;;;14.65;61.42;95403.19;5037744;28;20284;-79
2022/11/03 03:55:18;;;;;;;13.50;6.00;;;;;;;14.57;61.70;95397.38;5044569;28;20168;-79
2022/11/03 03:57:44;;;;;;;13.43;7.22;;;;;;;14.39;61.89;95376.19;5037552;28;20248;-79
2022/11/03 04:00:15;;;;;;;12.50;6.82;;;;;;;14.54;62.24;95401.28;5037693;28;20659;-79
2022/11/03 04:02:41;;;;;;;12.13;6.43;;;;;;;14.13;61.87;95345.50;5041848;28;20254;-79
2022/11/03 04:05:07;;;;;;;17.93;7.87;;;;;;;14.00;62.65;95338.53;5041529;28;20205;-79
2022/11/03 04:07:47;;;;;;;15.07;7.47;;;;;;;14.11;62.58;95360.78;5042177;28;20211;-79
2022/11/03 04:10:17;;;;;;;14.73;7.30;;;;;;;14.36;62.77;95409.19;5038371;28;20171;-79
2022/11/03 04:22:15;;;;;;;19.50;8.90;;;;;;;14.23;63.49;95401.41;5049173;28;20182;-79
2022/11/03 04:23:56;;;;;;;16.87;8.27;;;;;;;13.85;64.97;95394.44;5045141;28;20696;-79
2022/11/03 04:26:21;;;;;;;14.70;7.50;;;;;;;13.90;65.00;95407.84;5041434;28;20179;-79
2022/11/03 04:28:49;;;;;;;13.87;7.20;;;;;;;13.79;65.34;95400.59;5040023;28;20175;-79
2022/11/03 04:31:18;;;;;;;20.93;9.43;;;;;;;13.64;65.66;95394.84;5043652;28;20720;-79
2022/11/03 04:33:44;;;;;;;20.70;9.07;;;;;;;13.47;65.62;95367.31;5044868;28;20175;-79
2022/11/03 04:36:17;;;;;;;22.07;8.33;;;;;;;13.65;65.83;95401.75;5043515;28;20163;-79
2022/11/03 04:38:42;;;;;;;19.07;8.63;;;;;;;13.58;65.82;95398.31;5037621;28;20651;-79
2022/11/03 04:41:21;;;;;;;25.10;11.20;;;;;;;13.50;66.05;95388.81;5039158;28;20171;-79
2022/11/03 04:43:48;;;;;;;25.87;10.93;;;;;;;13.56;66.18;95405.69;5037417;28;20179;-79
2022/11/03 04:46:24;;;;;;;23.57;13.53;;;;;;;13.04;66.95;95332.81;5032257;28;20229;-79
2022/11/03 04:48:52;;;;;;;26.87;14.33;;;;;;;13.24;66.95;95365.22;5037898;28;20174;-80
2022/11/03 04:51:21;;;;;;;26.13;14.23;;;;;;;13.45;66.91;95401.09;5051454;28;20198;-79
2022/11/03 04:53:49;;;;;;;39.67;18.90;;;;;;;13.46;67.02;95408.00;5044951;28;20174;-80
2022/11/03 04:56:19;;;;;;;45.27;19.53;;;;;;;13.31;66.88;95375.75;5056794;28;20230;-79
2022/11/03 04:58:46;;;;;;;35.53;15.80;;;;;;;13.43;66.88;95403.13;5038544;28;20176;-79
2022/11/03 05:01:13;;;;;;;28.53;14.20;;;;;;;13.38;66.95;95405.63;5031802;28;20655;-78
2022/11/03 05:03:40;;;;;;;41.73;19.27;;;;;;;13.37;67.26;95404.81;5042929;28;20179;-79
2022/11/03 05:06:18;;;;;;;29.57;14.80;;;;;;;13.36;67.37;95402.38;5043482;28;20171;-79
2022/11/03 05:08:48;;;;;;;40.33;17.03;;;;;;;13.40;67.34;95407.03;5040607;28;20170;-79
2022/11/03 05:11:33;;;;;;;91.97;32.20;;;;;;;13.29;67.82;95383.91;5039140;28;20211;-79
2022/11/03 05:14:03;;;;;;;58.80;26.37;;;;;;;13.38;67.61;95401.13;5025108;28;20646;-80
2022/11/03 05:16:30;;;;;;;47.33;22.20;;;;;;;13.26;67.74;95378.22;5040051;28;20178;-79
2022/11/03 05:18:56;;;;;;;55.63;22.77;;;;;;;13.40;67.82;95409.66;5043451;28;20193;-79
2022/11/03 05:21:25;;;;;;;59.47;25.20;;;;;;;13.35;67.87;95408.66;5036649;28;20160;-79
2022/11/03 05:24:00;;;;;;;61.53;25.67;;;;;;;13.27;67.83;95404.47;5037080;28;20647;-79
2022/11/03 05:26:32;;;;;;;58.07;22.30;;;;;;;13.25;68.12;95395.91;5049009;28;20697;-80
2022/11/03 05:29:09;;;;;;;40.23;16.20;;;;;;;13.24;68.30;95391.66;5046608;28;20282;-79
2022/11/03 05:31:36;;;;;;;45.23;18.30;;;;;;;13.35;68.35;95422.72;5051424;28;20911;-77
2022/11/03 05:34:24;;;;;;;51.90;20.17;;;;;;;13.38;68.07;95427.59;5042653;28;20175;-77
2022/11/03 05:36:50;;;;;;;37.40;15.87;;;;;;;13.29;68.21;95412.19;5051329;28;20257;-77
2022/11/03 05:39:46;;;;;;;45.90;15.30;;;;;;;13.41;67.97;95421.03;5043088;28;20203;-77
2022/11/03 05:42:28;;;;;;;49.60;16.67;;;;;;;13.40;68.18;95422.91;5034272;28;20187;-77
2022/11/03 05:44:54;;;;;;;37.37;15.87;;;;;;;13.59;68.01;95432.50;5043023;28;20264;-78
2022/11/03 05:47:19;;;;;;;39.67;16.97;;;;;;;13.72;67.44;95442.19;5040248;28;20175;-78
2022/11/03 05:49:45;;;;;;;34.53;13.70;;;;;;;13.94;66.39;95442.59;5046002;28;20171;-77
2022/11/03 05:52:21;;;;;;;37.00;15.00;;;;;;;14.10;65.57;95439.41;5041131;28;20199;-77
2022/11/03 05:54:47;;;;;;;64.70;15.00;;;;;;;14.12;65.40;95432.06;5050260;28;20186;-77
2022/11/03 05:57:14;;;;;;;36.60;14.07;;;;;;;14.30;65.24;95447.97;5048389;28;20179;-77
2022/11/03 05:59:39;;;;;;;26.83;12.17;;;;;;;14.46;64.47;95449.25;5041879;28;20662;-77
2022/11/03 06:02:27;;;;;;;26.70;13.03;;;;;;;14.64;63.78;95441.31;5034163;28;20195;-78
2022/11/03 06:04:52;;;;;;;25.02;11.45;;;;;;;14.94;63.32;95448.53;5036444;28;20179;-78
2022/11/03 06:07:27;;;;;;;32.55;11.82;;;;;;;15.25;62.45;95466.88;5033036;28;20172;-78
2022/11/03 06:09:52;;;;;;;35.53;13.57;;;;;;;15.43;61.82;95463.38;5035861;28;20668;-77
2022/11/03 06:12:21;;;;;;;40.67;12.38;;;;;;;15.67;60.87;95465.09;5033285;28;20228;-78
2022/11/03 06:14:47;;;;;;;48.83;12.80;;;;;;;15.83;60.23;95453.00;5035361;28;20220;-77
2022/11/03 06:17:24;;;;;;;42.08;13.30;;;;;;;16.15;60.59;95472.91;5042106;28;20180;-77
2022/11/03 06:19:54;;;;;;;31.45;12.02;;;;;;;16.18;59.56;95445.06;5028508;28;20179;-78
2022/11/03 06:22:25;;;;;;;25.98;11.50;;;;;;;16.53;57.72;95474.28;5033828;28;20200;-77
2022/11/03 06:24:59;;;;;;;24.77;10.93;;;;;;;16.59;57.50;95460.09;5034162;28;20183;-77
2022/11/03 06:27:27;;;;;;;35.15;10.80;;;;;;;16.83;57.15;95475.00;5041644;28;20163;-77
2022/11/03 06:30:10;;;;;;;34.20;12.90;;;;;;;17.02;57.22;95480.16;5018159;28;20185;-77
2022/11/03 06:32:36;;;;;;;36.30;11.43;;;;;;;17.09;57.54;95470.19;5034092;28;20203;-77
2022/11/03 06:35:01;;;;;;;35.17;12.90;;;;;;;17.32;57.80;95483.41;5038858;28;20575;-77
2022/11/03 06:37:31;;;;;;;36.05;17.42;;;;;;;17.56;57.49;95486.78;5040602;28;20203;-78
2022/11/03 06:40:23;;;;;;;91.55;45.72;;;;;;;17.85;57.31;95488.41;5034402;28;20159;-78
2022/11/03 06:42:51;;;;;;;112.78;57.25;;;;;;;18.23;55.51;95487.72;5029685;28;20196;-79
2022/11/03 06:45:24;;;;;;;94.18;46.03;;;;;;;18.47;55.29;95494.47;5049865;28;20941;-79
2022/11/03 06:47:52;;;;;;;26.42;14.93;;;;;;;18.61;54.53;95486.16;5035677;28;20306;-78
2022/11/03 06:50:26;;;;;;;56.63;27.15;;;;;;;18.76;53.41;95483.72;5051467;28;20685;-79
2022/11/03 06:52:52;;;;;;;46.00;22.58;;;;;;;18.95;53.66;95492.22;5042523;28;20600;-80
2022/11/03 06:55:25;;;;;;;29.67;15.43;;;;;;;19.07;53.00;95491.06;5040665;28;20585;-79
2022/11/03 06:57:56;;;;;;;24.05;11.85;;;;;;;19.26;52.50;95491.56;5039941;28;20218;-78
2022/11/03 07:00:27;;;;;;;32.63;14.00;;;;;;;19.49;51.79;95493.19;5054103;28;20654;-79
2022/11/03 07:03:06;;;;;;;23.98;11.52;;;;;;;19.75;50.96;95487.06;5034301;28;20234;-79
2022/11/03 07:05:33;;;;;;;32.13;10.60;;;;;;;19.99;50.31;95492.88;5035925;28;20163;-79
2022/11/03 07:08:02;;;;;;;34.30;18.35;;;;;;;20.12;49.67;95475.63;5051033;28;20178;-78
2022/11/03 07:10:31;;;;;;;23.60;10.93;;;;;;;20.39;48.89;95470.25;5049588;28;20266;-77
2022/11/03 07:12:59;;;;;;;20.33;11.40;;;;;;;20.58;47.97;95477.59;5042007;28;20231;-78
2022/11/03 07:15:34;;;;;;;19.05;10.48;;;;;;;20.84;48.97;95478.56;5045897;28;20171;-79
2022/11/03 07:18:01;;;;;;;21.25;10.70;;;;;;;21.14;48.67;95487.81;5038930;28;20261;-79
2022/11/03 07:20:27;;;;;;;18.17;9.80;;;;;;;21.35;47.24;95473.47;5033494;28;20274;-79
2022/11/03 07:22:55;;;;;;;19.10;10.00;;;;;;;21.60;47.21;95475.41;5037312;28;20230;-77
2022/11/03 07:25:21;;;;;;;18.90;10.15;;;;;;;21.90;45.97;95480.81;5034474;28;20183;-76
2022/11/03 07:27:53;;;;;;;18.38;9.65;;;;;;;21.99;44.66;95467.72;5033383;28;20693;-76
2022/11/03 07:30:42;;;;;;;24.02;10.95;;;;;;;22.20;44.90;95477.41;5043880;28;20180;-77
2022/11/03 07:33:13;;;;;;;20.98;10.10;;;;;;;22.50;43.49;95473.88;5032134;28;20682;-76
2022/11/03 07:35:41;;;;;;;19.10;10.45;;;;;;;22.78;43.42;95486.78;5029854;28;20187;-76
2022/11/03 07:38:14;;;;;;;26.85;10.13;;;;;;;22.92;42.94;95481.63;5029654;28;20187;-77
2022/11/03 07:40:40;;;;;;;25.25;11.00;;;;;;;23.13;42.15;95480.50;5030912;28;20667;-77
2022/11/03 07:43:21;;;;;;;19.20;9.57;;;;;;;23.16;42.34;95482.66;5028862;28;20179;-76
2022/11/03 07:45:57;;;;;;;24.33;10.65;;;;;;;23.21;42.51;95487.19;5024515;28;20544;-76
2022/11/03 07:48:25;;;;;;;19.02;11.02;;;;;;;23.19;41.72;95474.03;5031349;28;20188;-76
2022/11/03 07:51:23;;;;;;;21.70;10.15;;;;;;;23.41;40.90;95489.81;5029207;28;20183;-76
2022/11/03 07:53:51;;;;;;;20.13;11.18;;;;;;;23.35;40.90;95484.72;5032171;28;20191;-78
2022/11/03 07:56:23;;;;;;;17.73;10.13;;;;;;;23.42;40.61;95477.16;5030080;28;20187;-77
2022/11/03 07:58:59;;;;;;;33.72;10.80;;;;;;;23.49;41.19;95486.56;5029609;28;20182;-77
2022/11/03 08:01:27;;;;;;;20.77;10.98;;;;;;;23.62;40.90;95474.38;5034879;28;20213;-77
2022/11/03 08:03:57;;;;;;;22.10;10.40;;;;;;;23.77;40.32;95479.72;5041841;28;20183;-77
2022/11/03 08:06:22;;;;;;;20.30;9.88;;;;;;;23.72;40.43;95452.81;5031039;28;20672;-77
2022/11/03 08:08:48;;;;;;;20.00;10.10;;;;;;;23.82;39.78;95460.03;5033472;28;20180;-77
2022/11/03 08:11:13;;;;;;;19.88;9.95;;;;;;;23.98;39.99;95467.72;5032802;28;20667;-77
2022/11/03 08:13:39;;;;;;;22.27;9.95;;;;;;;24.07;38.89;95443.72;5036224;28;20187;-77
2022/11/03 08:16:04;;;;;;;20.88;10.70;;;;;;;24.16;39.92;95455.47;5029782;28;20178;-77
2022/11/03 08:18:30;;;;;;;25.38;10.85;;;;;;;24.25;39.19;95458.41;5035644;28;20184;-77
2022/11/03 08:20:55;;;;;;;21.23;10.60;;;;;;;24.38;39.11;95449.69;5035666;28;20187;-78
2022/11/03 08:23:21;;;;;;;25.05;10.60;;;;;;;24.68;38.18;95464.75;5031354;28;20211;-79
2022/11/03 08:25:46;;;;;;;19.10;9.30;;;;;;;24.89;37.93;95458.06;5038863;28;20230;-78
2022/11/03 08:28:11;;;;;;;15.68;9.80;;;;;;;24.97;37.36;95446.69;5024336;28;20203;-76
2022/11/03 08:30:37;;;;;;;24.05;10.68;;;;;;;25.14;37.48;95452.44;5033935;28;20172;-77
2022/11/03 08:33:02;;;;;;;24.50;9.82;;;;;;;25.11;36.93;95449.50;5044001;28;20642;-77
2022/11/03 08:35:28;;;;;;;22.20;9.52;;;;;;;25.22;36.68;95440.19;5025812;28;20230;-77
2022/11/03 08:37:53;;;;;;;19.35;9.15;;;;;;;25.36;36.95;95440.28;5033963;28;20704;-77
2022/11/03 08:40:18;;;;;;;20.27;9.88;;;;;;;25.43;36.46;95435.34;5033553;28;20233;-77
2022/11/03 08:42:45;;;;;;;21.38;9.27;;;;;;;25.46;36.51;95432.88;5030855;28;20175;-78
2022/11/03 08:45:12;;;;;;;15.77;8.43;;;;;;;25.55;36.39;95444.63;5031735;28;20183;-77
2022/11/03 08:47:37;;;;;;;20.60;9.00;;;;;;;25.41;36.09;95422.16;5027172;28;20179;-77
2022/11/03 08:50:04;;;;;;;21.30;8.55;;;;;;;25.50;36.41;95439.31;5031828;28;20175;-77
2022/11/03 08:52:30;;;;;;;20.25;10.10;;;;;;;25.42;35.94;95439.94;5027828;28;20628;-77
2022/11/03 08:54:55;;;;;;;17.25;8.60;;;;;;;25.42;36.52;95433.75;5027155;28;20183;-76
2022/11/03 08:57:20;;;;;;;20.95;9.25;;;;;;;25.36;36.82;95430.31;5029211;28;20191;-77
2022/11/03 08:59:46;;;;;;;27.45;9.43;;;;;;;25.38;37.34;95440.81;5026646;28;20704;-76
2022/11/03 09:02:11;;;;;;;29.42;10.20;;;;;;;25.38;36.84;95444.31;5028722;28;20595;-77
2022/11/03 09:04:36;;;;;;;16.20;9.60;;;;;;;25.17;36.13;95430.28;5028168;28;20565;-77
2022/11/03 09:07:02;;;;;;;25.15;9.13;;;;;;;25.12;36.88;95438.44;5030395;28;20176;-76
2022/11/03 09:09:27;;;;;;;29.75;9.27;;;;;;;24.82;37.68;95417.22;5026776;28;20180;-76
2022/11/03 09:11:53;;;;;;;24.83;8.13;;;;;;;24.72;38.51;95422.69;5028890;28;20219;-76
2022/11/03 09:14:18;;;;;;;15.02;7.63;;;;;;;24.61;37.50;95413.13;5026339;28;20685;-76
2022/11/03 09:16:44;;;;;;;20.05;8.10;;;;;;;24.46;38.01;95430.22;5027586;28;20183;-76
2022/11/03 09:19:09;;;;;;;17.90;7.68;;;;;;;24.35;38.61;95421.44;5024779;28;20194;-76
2022/11/03 09:21:34;;;;;;;14.07;8.60;;;;;;;24.28;38.14;95420.16;5027157;28;20198;-76
2022/11/03 09:24:00;;;;;;;14.70;7.60;;;;;;;24.22;38.61;95416.69;5024268;28;20184;-76
2022/11/03 09:26:26;;;;;;;16.85;8.70;;;;;;;24.10;38.98;95413.56;5027389;28;20182;-76
2022/11/03 09:28:51;;;;;;;17.83;9.20;;;;;;;24.14;39.94;95417.28;5029700;28;20190;-77
2022/11/03 09:31:18;;;;;;;19.73;8.82;;;;;;;24.07;39.90;95409.53;5030573;28;20218;-76
2022/11/03 09:33:43;;;;;;;19.45;9.38;;;;;;;24.02;39.15;95400.72;5025818;28;20275;-76
2022/11/03 09:36:09;;;;;;;16.92;8.88;;;;;;;23.79;39.87;95385.28;5026451;28;20614;-76
2022/11/03 09:38:34;;;;;;;19.35;8.65;;;;;;;23.56;39.05;95392.97;5031660;28;20184;-76
2022/11/03 09:41:01;;;;;;;20.77;9.73;;;;;;;22.74;40.50;95398.97;5026718;28;20190;-76
2022/11/03 09:43:27;;;;;;;26.73;9.68;;;;;;;22.10;41.75;95376.28;5026433;28;20184;-76
2022/11/03 09:45:53;;;;;;;17.80;8.57;;;;;;;21.86;42.59;95382.44;5026654;28;20811;-76
2022/11/03 09:48:18;;;;;;;25.33;9.27;;;;;;;21.90;43.38;95386.97;5025476;28;20179;-76
2022/11/03 09:50:52;;;;;;;17.90;8.75;;;;;;;22.19;42.83;95379.22;5026847;28;20195;-76
2022/11/03 09:53:19;;;;;;;23.23;9.02;;;;;;;22.52;43.22;95383.19;5026911;28;20646;-76
2022/11/03 09:55:45;;;;;;;22.75;8.40;;;;;;;22.79;42.27;95380.19;5028941;28;20274;-75
2022/11/03 09:58:15;;;;;;;21.60;8.77;;;;;;;22.79;41.72;95364.88;5029375;28;20180;-75
2022/11/03 10:00:41;;;;;;;17.05;7.80;;;;;;;22.97;41.72;95373.38;5028907;28;20187;-75
2022/11/03 10:03:15;;;;;;;20.25;8.75;;;;;;;22.97;41.40;95363.44;5031385;28;20179;-75
2022/11/03 10:05:43;;;;;;;20.40;9.40;;;;;;;22.98;42.09;95350.84;5038302;28;20186;-76
2022/11/03 10:08:31;;;;;;;18.90;8.35;;;;;;;23.14;40.65;95355.84;5033039;28;20182;-76
2022/11/03 10:10:57;;;;;;;16.15;8.23;;;;;;;23.06;40.12;95347.56;5028590;28;20569;-76
2022/11/03 10:13:29;;;;;;;14.05;7.57;;;;;;;23.01;40.31;95352.94;5032584;28;20230;-76
2022/11/03 10:15:56;;;;;;;18.83;7.63;;;;;;;22.89;40.89;95347.91;5034569;28;20209;-77
2022/11/03 10:18:22;;;;;;;18.00;7.43;;;;;;;22.79;41.24;95343.41;5054090;28;20163;-76
2022/11/03 10:20:47;;;;;;;16.05;7.78;;;;;;;22.72;41.45;95342.84;5038439;28;20172;-76
2022/11/03 10:23:13;;;;;;;15.90;6.78;;;;;;;22.77;41.29;95336.69;5033060;28;20525;-76
2022/11/03 10:25:43;;;;;;;14.70;7.53;;;;;;;22.81;41.69;95332.38;5042530;28;20654;-76
2022/11/03 10:28:27;;;;;;;21.27;7.93;;;;;;;22.70;41.15;95306.63;5033923;28;20180;-77
2022/11/03 10:31:05;;;;;;;21.02;8.13;;;;;;;22.89;41.47;95318.38;5044400;28;20650;-77
2022/11/03 10:34:00;;;;;;;18.48;7.60;;;;;;;22.92;40.75;95315.13;5037291;28;20183;-77
2022/11/03 10:36:28;;;;;;;13.35;6.82;;;;;;;22.93;40.08;95317.53;5028155;28;20191;-79
2022/11/03 10:38:54;;;;;;;15.68;6.95;;;;;;;22.88;39.94;95297.97;5041119;28;20187;-76
2022/11/03 10:41:29;;;;;;;10.70;5.95;;;;;;;22.96;39.55;95302.75;5032667;28;20229;-76
2022/11/03 10:44:04;;;;;;;13.07;5.68;;;;;;;22.89;39.97;95311.13;5033687;28;20191;-76
2022/11/03 10:46:31;;;;;;;11.40;5.82;;;;;;;22.86;39.41;95300.13;5040487;28;20179;-76
2022/11/03 10:49:04;;;;;;;13.32;6.15;;;;;;;22.89;40.44;95296.91;5026722;28;20188;-75
2022/11/03 10:51:33;;;;;;;16.00;6.18;;;;;;;22.71;39.30;95266.06;5028813;28;20565;-76
2022/11/03 10:54:00;;;;;;;14.50;6.40;;;;;;;22.61;38.90;95286.78;5062545;28;20568;-75
2022/11/03 10:56:26;;;;;;;17.50;5.93;;;;;;;22.14;40.99;95288.81;5028388;28;20191;-75
2022/11/03 10:58:51;;;;;;;39.78;7.05;;;;;;;22.13;40.70;95273.03;5028530;28;20187;-76
2022/11/03 11:01:17;;;;;;;16.95;5.60;;;;;;;22.23;40.12;95272.97;5026660;28;20233;-75
2022/11/03 11:03:44;;;;;;;10.35;4.85;;;;;;;22.31;39.35;95266.28;5026694;28;20250;-76
2022/11/03 11:06:29;;;;;;;12.38;4.88;;;;;;;22.46;38.61;95267.00;5024501;28;20643;-75
2022/11/03 11:09:00;;;;;;;9.00;4.78;;;;;;;22.51;38.19;95255.44;5026387;28;20179;-76
2022/11/03 11:11:28;;;;;;;11.88;4.47;;;;;;;22.55;37.57;95259.19;5027771;28;20220;-77
2022/11/03 11:14:38;;;;;;;12.90;4.95;;;;;;;22.58;37.51;95256.72;5033350;28;20238;-77
2022/11/03 11:17:04;;;;;;;11.20;4.95;;;;;;;22.56;36.55;95250.06;5038153;28;20269;-77
2022/11/03 11:19:49;;;;;;;13.40;4.38;;;;;;;22.48;37.26;95247.94;5031856;28;20655;-77
2022/11/03 11:22:21;;;;;;;11.30;4.22;;;;;;;22.15;37.80;95244.84;5033450;28;20178;-77
2022/11/03 11:24:47;;;;;;;12.55;5.07;;;;;;;22.00;38.55;95244.09;5026673;28;20180;-76
2022/11/03 11:27:31;;;;;;;13.35;4.40;;;;;;;21.92;39.07;95240.06;5032640;28;20242;-76
2022/11/03 11:30:19;;;;;;;16.88;5.63;;;;;;;21.99;37.93;95237.13;5030883;28;20171;-77
2022/11/03 11:32:45;;;;;;;13.43;4.45;;;;;;;21.93;37.70;95230.13;5033741;28;20666;-77
2022/11/03 11:35:32;;;;;;;9.98;4.82;;;;;;;22.06;37.60;95227.72;5043934;28;20263;-77
2022/11/03 11:38:35;;;;;;;9.15;4.00;;;;;;;22.07;37.36;95225.81;5030912;28;20623;-77
2022/11/03 11:41:01;;;;;;;17.25;4.72;;;;;;;22.00;37.71;95215.41;5030915;28;20179;-78
2022/11/03 11:43:27;;;;;;;16.05;4.70;;;;;;;22.06;36.83;95211.63;5030024;28;20374;-78
2022/11/03 11:46:23;;;;;;;8.80;3.17;;;;;;;22.03;36.53;95217.53;5029854;28;20748;-78
2022/11/03 11:49:15;;;;;;;16.35;5.13;;;;;;;21.88;37.01;95209.50;5046071;28;20210;-78
2022/11/03 11:51:40;;;;;;;7.22;3.80;;;;;;;21.90;37.92;95207.34;5030895;28;20199;-78
2022/11/03 11:54:07;;;;;;;9.52;4.30;;;;;;;21.99;37.47;95200.38;5030787;28;20565;-78